sensor_id;sensor_type;location;lat;lon;timestamp;P1;durP1;ratioP1;P2;durP2;ratioP2
13816;SDS011;6979;52.116;5.286;2023-11-21T00:01:10;20.30;;;14.07;;
13816;SDS011;6979;52.116;5.286;2023-11-21T00:03:37;18.47;;;12.47;;
13816;SDS011;6979;52.116;5.286;2023-11-21T00:06:04;21.63;;;12.67;;
13816;SDS011;6979;52.116;5.286;2023-11-21T00:08:36;31.37;;;14.17;;
13816;SDS011;6979;52.116;5.286;2023-11-21T00:11:04;19.33;;;14.20;;
13816;SDS011;6979;52.116;5.286;2023-11-21T00:13:31;40.90;;;13.77;;
13816;SDS011;6979;52.116;5.286;2023-11-21T00:15:58;27.73;;;13.03;;
13816;SDS011;6979;52.116;5.286;2023-11-21T00:18:25;18.63;;;13.50;;
13816;SDS011;6979;52.116;5.286;2023-11-21T00:20:52;25.27;;;12.73;;
13816;SDS011;6979;52.116;5.286;2023-11-21T00:23:19;20.37;;;12.73;;
13816;SDS011;6979;52.116;5.286;2023-11-21T00:25:47;18.23;;;12.23;;
13816;SDS011;6979;52.116;5.286;2023-11-21T00:28:14;20.13;;;13.07;;
13816;SDS011;6979;52.116;5.286;2023-11-21T00:30:41;13.90;;;12.50;;
13816;SDS011;6979;52.116;5.286;2023-11-21T00:33:08;19.33;;;12.03;;
13816;SDS011;6979;52.116;5.286;2023-11-21T00:35:34;20.07;;;13.20;;
13816;SDS011;6979;52.116;5.286;2023-11-21T00:38:01;14.20;;;12.23;;
13816;SDS011;6979;52.116;5.286;2023-11-21T00:40:28;19.93;;;13.30;;
13816;SDS011;6979;52.116;5.286;2023-11-21T00:42:57;18.00;;;12.27;;
13816;SDS011;6979;52.116;5.286;2023-11-21T00:45:24;18.13;;;12.43;;
13816;SDS011;6979;52.116;5.286;2023-11-21T00:47:51;18.27;;;11.70;;
13816;SDS011;6979;52.116;5.286;2023-11-21T00:50:18;14.50;;;12.27;;
13816;SDS011;6979;52.116;5.286;2023-11-21T00:52:45;17.67;;;12.03;;
13816;SDS011;6979;52.116;5.286;2023-11-21T00:55:12;15.47;;;12.63;;
13816;SDS011;6979;52.116;5.286;2023-11-21T00:57:39;18.10;;;12.33;;
13816;SDS011;6979;52.116;5.286;2023-11-21T01:00:08;17.83;;;12.60;;
13816;SDS011;6979;52.116;5.286;2023-11-21T01:02:38;17.70;;;10.83;;
13816;SDS011;6979;52.116;5.286;2023-11-21T01:05:05;17.80;;;11.63;;
13816;SDS011;6979;52.116;5.286;2023-11-21T01:07:33;19.50;;;11.07;;
13816;SDS011;6979;52.116;5.286;2023-11-21T01:10:01;15.47;;;11.20;;
13816;SDS011;6979;52.116;5.286;2023-11-21T01:12:32;15.03;;;10.70;;
13816;SDS011;6979;52.116;5.286;2023-11-21T01:15:00;12.47;;;11.17;;
13816;SDS011;6979;52.116;5.286;2023-11-21T01:17:29;11.70;;;10.50;;
13816;SDS011;6979;52.116;5.286;2023-11-21T01:19:56;16.10;;;11.80;;
13816;SDS011;6979;52.116;5.286;2023-11-21T01:22:24;13.13;;;11.50;;
13816;SDS011;6979;52.116;5.286;2023-11-21T01:24:52;14.47;;;10.67;;
13816;SDS011;6979;52.116;5.286;2023-11-21T01:27:19;12.83;;;11.03;;
13816;SDS011;6979;52.116;5.286;2023-11-21T01:29:46;13.57;;;11.30;;
13816;SDS011;6979;52.116;5.286;2023-11-21T01:32:14;11.33;;;10.13;;
13816;SDS011;6979;52.116;5.286;2023-11-21T01:34:42;11.70;;;9.97;;
13816;SDS011;6979;52.116;5.286;2023-11-21T01:37:09;15.77;;;10.43;;
13816;SDS011;6979;52.116;5.286;2023-11-21T01:39:37;12.53;;;10.70;;
13816;SDS011;6979;52.116;5.286;2023-11-21T01:42:04;13.03;;;9.90;;
13816;SDS011;6979;52.116;5.286;2023-11-21T01:44:33;12.93;;;10.67;;
13816;SDS011;6979;52.116;5.286;2023-11-21T01:46:59;12.73;;;10.53;;
13816;SDS011;6979;52.116;5.286;2023-11-21T01:49:30;10.97;;;9.87;;
13816;SDS011;6979;52.116;5.286;2023-11-21T01:51:58;13.80;;;10.23;;
13816;SDS011;6979;52.116;5.286;2023-11-21T01:54:26;11.87;;;10.20;;
13816;SDS011;6979;52.116;5.286;2023-11-21T01:56:56;11.70;;;10.60;;
13816;SDS011;6979;52.116;5.286;2023-11-21T01:59:27;10.43;;;9.47;;
13816;SDS011;6979;52.116;5.286;2023-11-21T02:01:59;10.27;;;9.37;;
13816;SDS011;6979;52.116;5.286;2023-11-21T02:04:26;11.37;;;10.17;;
13816;SDS011;6979;52.116;5.286;2023-11-21T02:06:55;11.10;;;9.67;;
13816;SDS011;6979;52.116;5.286;2023-11-21T02:09:25;10.90;;;9.90;;
13816;SDS011;6979;52.116;5.286;2023-11-21T02:11:54;10.83;;;9.83;;
13816;SDS011;6979;52.116;5.286;2023-11-21T02:14:22;10.70;;;9.70;;
13816;SDS011;6979;52.116;5.286;2023-11-21T02:16:50;12.10;;;10.90;;
13816;SDS011;6979;52.116;5.286;2023-11-21T02:19:18;11.53;;;10.53;;
13816;SDS011;6979;52.116;5.286;2023-11-21T02:21:48;9.43;;;8.63;;
13816;SDS011;6979;52.116;5.286;2023-11-21T02:24:19;15.13;;;9.93;;
13816;SDS011;6979;52.116;5.286;2023-11-21T02:26:46;9.80;;;8.80;;
13816;SDS011;6979;52.116;5.286;2023-11-21T02:29:13;10.87;;;8.90;;
13816;SDS011;6979;52.116;5.286;2023-11-21T02:31:43;9.07;;;8.17;;
13816;SDS011;6979;52.116;5.286;2023-11-21T02:34:15;9.43;;;8.63;;
13816;SDS011;6979;52.116;5.286;2023-11-21T02:36:42;14.23;;;9.83;;
13816;SDS011;6979;52.116;5.286;2023-11-21T02:39:10;10.80;;;8.43;;
13816;SDS011;6979;52.116;5.286;2023-11-21T02:41:39;8.60;;;7.77;;
13816;SDS011;6979;52.116;5.286;2023-11-21T02:44:06;9.17;;;8.37;;
13816;SDS011;6979;52.116;5.286;2023-11-21T02:46:33;9.77;;;8.80;;
13816;SDS011;6979;52.116;5.286;2023-11-21T02:49:00;10.60;;;8.83;;
13816;SDS011;6979;52.116;5.286;2023-11-21T02:51:27;8.80;;;7.80;;
13816;SDS011;6979;52.116;5.286;2023-11-21T02:53:54;8.00;;;7.20;;
13816;SDS011;6979;52.116;5.286;2023-11-21T02:56:24;8.23;;;7.43;;
13816;SDS011;6979;52.116;5.286;2023-11-21T02:58:54;9.13;;;8.23;;
13816;SDS011;6979;52.116;5.286;2023-11-21T03:01:23;8.57;;;7.67;;
13816;SDS011;6979;52.116;5.286;2023-11-21T03:03:50;9.27;;;8.47;;
13816;SDS011;6979;52.116;5.286;2023-11-21T03:06:17;9.10;;;8.17;;
13816;SDS011;6979;52.116;5.286;2023-11-21T03:08:44;9.13;;;8.10;;
13816;SDS011;6979;52.116;5.286;2023-11-21T03:11:11;8.83;;;7.83;;
13816;SDS011;6979;52.116;5.286;2023-11-21T03:13:38;9.73;;;8.83;;
13816;SDS011;6979;52.116;5.286;2023-11-21T03:16:08;9.93;;;8.77;;
13816;SDS011;6979;52.116;5.286;2023-11-21T03:18:35;8.27;;;7.20;;
13816;SDS011;6979;52.116;5.286;2023-11-21T03:21:02;10.67;;;8.10;;
13816;SDS011;6979;52.116;5.286;2023-11-21T03:23:29;9.50;;;8.50;;
13816;SDS011;6979;52.116;5.286;2023-11-21T03:25:57;9.77;;;8.20;;
13816;SDS011;6979;52.116;5.286;2023-11-21T03:28:26;9.07;;;8.27;;
13816;SDS011;6979;52.116;5.286;2023-11-21T03:30:55;9.20;;;8.30;;
13816;SDS011;6979;52.116;5.286;2023-11-21T03:33:24;10.03;;;7.80;;
13816;SDS011;6979;52.116;5.286;2023-11-21T03:35:52;12.37;;;8.87;;
13816;SDS011;6979;52.116;5.286;2023-11-21T03:38:19;9.20;;;8.30;;
13816;SDS011;6979;52.116;5.286;2023-11-21T03:40:46;10.13;;;9.13;;
13816;SDS011;6979;52.116;5.286;2023-11-21T03:43:15;9.17;;;8.23;;
13816;SDS011;6979;52.116;5.286;2023-11-21T03:45:42;11.13;;;8.60;;
13816;SDS011;6979;52.116;5.286;2023-11-21T03:48:09;9.80;;;8.87;;
13816;SDS011;6979;52.116;5.286;2023-11-21T03:50:40;9.63;;;8.53;;
13816;SDS011;6979;52.116;5.286;2023-11-21T03:53:07;10.20;;;7.47;;
13816;SDS011;6979;52.116;5.286;2023-11-21T03:55:34;10.23;;;8.30;;
13816;SDS011;6979;52.116;5.286;2023-11-21T03:58:00;10.70;;;8.47;;
13816;SDS011;6979;52.116;5.286;2023-11-21T04:00:28;9.33;;;8.17;;
13816;SDS011;6979;52.116;5.286;2023-11-21T04:02:54;9.90;;;8.90;;
13816;SDS011;6979;52.116;5.286;2023-11-21T04:05:21;10.03;;;9.20;;
13816;SDS011;6979;52.116;5.286;2023-11-21T04:07:50;9.67;;;8.77;;
13816;SDS011;6979;52.116;5.286;2023-11-21T04:10:17;10.73;;;9.63;;
13816;SDS011;6979;52.116;5.286;2023-11-21T04:12:44;9.97;;;8.63;;
13816;SDS011;6979;52.116;5.286;2023-11-21T04:15:11;9.70;;;8.70;;
13816;SDS011;6979;52.116;5.286;2023-11-21T04:17:39;12.27;;;9.87;;
13816;SDS011;6979;52.116;5.286;2023-11-21T04:20:06;9.83;;;8.83;;
13816;SDS011;6979;52.116;5.286;2023-11-21T04:22:38;12.40;;;9.80;;
13816;SDS011;6979;52.116;5.286;2023-11-21T04:25:10;9.90;;;8.87;;
13816;SDS011;6979;52.116;5.286;2023-11-21T04:27:39;10.43;;;9.33;;
13816;SDS011;6979;52.116;5.286;2023-11-21T04:30:06;10.30;;;9.30;;
13816;SDS011;6979;52.116;5.286;2023-11-21T04:32:35;9.63;;;8.63;;
13816;SDS011;6979;52.116;5.286;2023-11-21T04:35:02;10.43;;;9.13;;
13816;SDS011;6979;52.116;5.286;2023-11-21T04:37:29;10.03;;;9.03;;
13816;SDS011;6979;52.116;5.286;2023-11-21T04:39:56;10.23;;;9.23;;
13816;SDS011;6979;52.116;5.286;2023-11-21T04:42:24;10.63;;;9.53;;
13816;SDS011;6979;52.116;5.286;2023-11-21T04:44:51;11.63;;;9.63;;
13816;SDS011;6979;52.116;5.286;2023-11-21T04:47:18;10.90;;;9.80;;
13816;SDS011;6979;52.116;5.286;2023-11-21T04:49:45;11.50;;;9.50;;
13816;SDS011;6979;52.116;5.286;2023-11-21T04:52:13;10.57;;;9.47;;
13816;SDS011;6979;52.116;5.286;2023-11-21T04:54:40;10.00;;;9.10;;
13816;SDS011;6979;52.116;5.286;2023-11-21T04:57:08;11.00;;;9.70;;
13816;SDS011;6979;52.116;5.286;2023-11-21T04:59:36;9.53;;;8.53;;
13816;SDS011;6979;52.116;5.286;2023-11-21T05:02:03;9.43;;;8.53;;
13816;SDS011;6979;52.116;5.286;2023-11-21T05:04:30;10.23;;;9.30;;
13816;SDS011;6979;52.116;5.286;2023-11-21T05:06:57;10.57;;;9.57;;
13816;SDS011;6979;52.116;5.286;2023-11-21T05:09:25;10.33;;;9.20;;
13816;SDS011;6979;52.116;5.286;2023-11-21T05:11:53;11.57;;;9.27;;
13816;SDS011;6979;52.116;5.286;2023-11-21T05:14:20;12.07;;;9.63;;
13816;SDS011;6979;52.116;5.286;2023-11-21T05:16:48;12.63;;;9.70;;
13816;SDS011;6979;52.116;5.286;2023-11-21T05:19:15;11.30;;;10.07;;
13816;SDS011;6979;52.116;5.286;2023-11-21T05:21:42;12.40;;;9.70;;
13816;SDS011;6979;52.116;5.286;2023-11-21T05:24:09;11.57;;;10.30;;
13816;SDS011;6979;52.116;5.286;2023-11-21T05:26:36;10.67;;;9.60;;
13816;SDS011;6979;52.116;5.286;2023-11-21T05:29:03;10.37;;;9.40;;
13816;SDS011;6979;52.116;5.286;2023-11-21T05:31:30;10.30;;;9.30;;
13816;SDS011;6979;52.116;5.286;2023-11-21T05:33:58;8.57;;;7.77;;
13816;SDS011;6979;52.116;5.286;2023-11-21T05:36:25;10.53;;;9.20;;
13816;SDS011;6979;52.116;5.286;2023-11-21T05:38:52;10.93;;;9.83;;
13816;SDS011;6979;52.116;5.286;2023-11-21T05:41:18;11.40;;;9.60;;
13816;SDS011;6979;52.116;5.286;2023-11-21T05:43:45;12.30;;;9.93;;
13816;SDS011;6979;52.116;5.286;2023-11-21T05:46:12;10.70;;;9.50;;
13816;SDS011;6979;52.116;5.286;2023-11-21T05:48:39;12.03;;;9.43;;
13816;SDS011;6979;52.116;5.286;2023-11-21T05:51:07;13.03;;;9.47;;
13816;SDS011;6979;52.116;5.286;2023-11-21T05:53:34;12.00;;;9.10;;
13816;SDS011;6979;52.116;5.286;2023-11-21T05:56:01;9.30;;;8.47;;
13816;SDS011;6979;52.116;5.286;2023-11-21T05:58:29;10.70;;;9.60;;
13816;SDS011;6979;52.116;5.286;2023-11-21T06:00:55;10.90;;;9.80;;
13816;SDS011;6979;52.116;5.286;2023-11-21T06:03:22;9.33;;;8.53;;
13816;SDS011;6979;52.116;5.286;2023-11-21T06:05:50;12.63;;;9.83;;
13816;SDS011;6979;52.116;5.286;2023-11-21T06:08:18;10.53;;;9.30;;
13816;SDS011;6979;52.116;5.286;2023-11-21T06:10:45;10.87;;;9.73;;
13816;SDS011;6979;52.116;5.286;2023-11-21T06:13:14;10.57;;;9.17;;
13816;SDS011;6979;52.116;5.286;2023-11-21T06:15:41;11.27;;;10.07;;
13816;SDS011;6979;52.116;5.286;2023-11-21T06:18:08;10.40;;;8.77;;
13816;SDS011;6979;52.116;5.286;2023-11-21T06:20:36;10.20;;;8.67;;
13816;SDS011;6979;52.116;5.286;2023-11-21T06:23:03;11.87;;;9.40;;
13816;SDS011;6979;52.116;5.286;2023-11-21T06:25:32;11.27;;;9.10;;
13816;SDS011;6979;52.116;5.286;2023-11-21T06:28:02;11.43;;;9.40;;
13816;SDS011;6979;52.116;5.286;2023-11-21T06:30:30;14.20;;;10.17;;
13816;SDS011;6979;52.116;5.286;2023-11-21T06:32:57;10.93;;;9.83;;
13816;SDS011;6979;52.116;5.286;2023-11-21T06:35:24;10.33;;;9.33;;
13816;SDS011;6979;52.116;5.286;2023-11-21T06:37:52;11.00;;;9.90;;
13816;SDS011;6979;52.116;5.286;2023-11-21T06:40:19;13.00;;;9.60;;
13816;SDS011;6979;52.116;5.286;2023-11-21T06:42:48;14.47;;;10.77;;
13816;SDS011;6979;52.116;5.286;2023-11-21T06:45:15;13.93;;;10.80;;
13816;SDS011;6979;52.116;5.286;2023-11-21T06:47:42;15.17;;;11.33;;
13816;SDS011;6979;52.116;5.286;2023-11-21T06:50:09;12.53;;;11.23;;
13816;SDS011;6979;52.116;5.286;2023-11-21T06:52:36;11.87;;;10.60;;
13816;SDS011;6979;52.116;5.286;2023-11-21T06:55:03;12.20;;;9.77;;
13816;SDS011;6979;52.116;5.286;2023-11-21T06:57:33;11.33;;;10.13;;
13816;SDS011;6979;52.116;5.286;2023-11-21T07:00:01;12.93;;;10.10;;
13816;SDS011;6979;52.116;5.286;2023-11-21T07:02:28;13.77;;;10.80;;
13816;SDS011;6979;52.116;5.286;2023-11-21T07:04:55;14.90;;;10.63;;
13816;SDS011;6979;52.116;5.286;2023-11-21T07:07:22;12.90;;;10.77;;
13816;SDS011;6979;52.116;5.286;2023-11-21T07:09:49;11.93;;;10.23;;
13816;SDS011;6979;52.116;5.286;2023-11-21T07:12:17;13.90;;;9.87;;
13816;SDS011;6979;52.116;5.286;2023-11-21T07:14:43;12.27;;;10.63;;
13816;SDS011;6979;52.116;5.286;2023-11-21T07:17:12;10.07;;;8.80;;
13816;SDS011;6979;52.116;5.286;2023-11-21T07:19:38;12.30;;;10.33;;
13816;SDS011;6979;52.116;5.286;2023-11-21T07:22:06;12.00;;;9.40;;
13816;SDS011;6979;52.116;5.286;2023-11-21T07:24:36;11.43;;;9.93;;
13816;SDS011;6979;52.116;5.286;2023-11-21T07:27:03;12.47;;;10.33;;
13816;SDS011;6979;52.116;5.286;2023-11-21T07:29:30;12.30;;;9.07;;
13816;SDS011;6979;52.116;5.286;2023-11-21T07:31:58;10.90;;;9.23;;
13816;SDS011;6979;52.116;5.286;2023-11-21T07:34:27;11.83;;;9.43;;
13816;SDS011;6979;52.116;5.286;2023-11-21T07:36:53;12.87;;;9.07;;
13816;SDS011;6979;52.116;5.286;2023-11-21T07:39:20;12.93;;;9.13;;
13816;SDS011;6979;52.116;5.286;2023-11-21T07:41:47;10.97;;;8.80;;
13816;SDS011;6979;52.116;5.286;2023-11-21T07:44:15;11.47;;;9.77;;
13816;SDS011;6979;52.116;5.286;2023-11-21T07:46:43;12.07;;;10.00;;
13816;SDS011;6979;52.116;5.286;2023-11-21T07:49:10;13.80;;;8.77;;
13816;SDS011;6979;52.116;5.286;2023-11-21T07:51:41;10.70;;;8.13;;
13816;SDS011;6979;52.116;5.286;2023-11-21T07:54:08;11.30;;;8.90;;
13816;SDS011;6979;52.116;5.286;2023-11-21T07:56:36;13.07;;;8.90;;
13816;SDS011;6979;52.116;5.286;2023-11-21T07:59:02;11.47;;;7.90;;
13816;SDS011;6979;52.116;5.286;2023-11-21T08:01:29;10.50;;;9.00;;
13816;SDS011;6979;52.116;5.286;2023-11-21T08:03:57;8.93;;;7.83;;
13816;SDS011;6979;52.116;5.286;2023-11-21T08:06:27;9.97;;;8.70;;
13816;SDS011;6979;52.116;5.286;2023-11-21T08:08:55;9.00;;;8.10;;
13816;SDS011;6979;52.116;5.286;2023-11-21T08:11:22;8.97;;;7.20;;
13816;SDS011;6979;52.116;5.286;2023-11-21T08:13:48;10.07;;;8.47;;
13816;SDS011;6979;52.116;5.286;2023-11-21T08:16:15;8.80;;;7.90;;
13816;SDS011;6979;52.116;5.286;2023-11-21T08:18:42;12.13;;;7.57;;
13816;SDS011;6979;52.116;5.286;2023-11-21T08:21:09;8.23;;;7.40;;
13816;SDS011;6979;52.116;5.286;2023-11-21T08:23:38;9.57;;;7.67;;
13816;SDS011;6979;52.116;5.286;2023-11-21T08:26:06;7.10;;;6.17;;
13816;SDS011;6979;52.116;5.286;2023-11-21T08:28:34;6.83;;;6.17;;
13816;SDS011;6979;52.116;5.286;2023-11-21T08:31:00;6.73;;;6.13;;
13816;SDS011;6979;52.116;5.286;2023-11-21T08:33:27;6.30;;;5.80;;
13816;SDS011;6979;52.116;5.286;2023-11-21T08:35:54;6.77;;;5.37;;
13816;SDS011;6979;52.116;5.286;2023-11-21T08:38:21;7.03;;;6.43;;
13816;SDS011;6979;52.116;5.286;2023-11-21T08:40:48;6.30;;;5.30;;
13816;SDS011;6979;52.116;5.286;2023-11-21T08:43:16;6.80;;;6.10;;
13816;SDS011;6979;52.116;5.286;2023-11-21T08:45:45;6.47;;;5.87;;
13816;SDS011;6979;52.116;5.286;2023-11-21T08:48:12;6.57;;;5.73;;
13816;SDS011;6979;52.116;5.286;2023-11-21T08:50:38;7.73;;;5.83;;
13816;SDS011;6979;52.116;5.286;2023-11-21T08:53:05;8.73;;;6.90;;
13816;SDS011;6979;52.116;5.286;2023-11-21T08:55:32;6.80;;;5.87;;
13816;SDS011;6979;52.116;5.286;2023-11-21T08:58:02;8.07;;;6.50;;
13816;SDS011;6979;52.116;5.286;2023-11-21T09:00:31;9.37;;;6.63;;
13816;SDS011;6979;52.116;5.286;2023-11-21T09:02:58;7.30;;;6.47;;
13816;SDS011;6979;52.116;5.286;2023-11-21T09:05:27;7.33;;;6.67;;
13816;SDS011;6979;52.116;5.286;2023-11-21T09:07:53;8.97;;;6.70;;
13816;SDS011;6979;52.116;5.286;2023-11-21T09:10:20;7.97;;;7.07;;
13816;SDS011;6979;52.116;5.286;2023-11-21T09:12:48;7.57;;;6.77;;
13816;SDS011;6979;52.116;5.286;2023-11-21T09:15:17;7.27;;;6.57;;
13816;SDS011;6979;52.116;5.286;2023-11-21T09:17:47;7.00;;;6.30;;
13816;SDS011;6979;52.116;5.286;2023-11-21T09:20:14;8.40;;;7.47;;
13816;SDS011;6979;52.116;5.286;2023-11-21T09:22:41;7.90;;;7.20;;
13816;SDS011;6979;52.116;5.286;2023-11-21T09:25:09;7.80;;;7.00;;
13816;SDS011;6979;52.116;5.286;2023-11-21T09:27:37;10.00;;;8.37;;
13816;SDS011;6979;52.116;5.286;2023-11-21T09:30:05;8.90;;;8.10;;
13816;SDS011;6979;52.116;5.286;2023-11-21T09:32:34;8.70;;;7.80;;
13816;SDS011;6979;52.116;5.286;2023-11-21T09:35:03;9.00;;;7.90;;
13816;SDS011;6979;52.116;5.286;2023-11-21T09:37:33;9.00;;;8.20;;
13816;SDS011;6979;52.116;5.286;2023-11-21T09:40:01;9.67;;;8.87;;
13816;SDS011;6979;52.116;5.286;2023-11-21T09:42:30;9.97;;;9.07;;
13816;SDS011;6979;52.116;5.286;2023-11-21T09:45:03;9.80;;;8.10;;
13816;SDS011;6979;52.116;5.286;2023-11-21T09:47:38;7.67;;;6.97;;
13816;SDS011;6979;52.116;5.286;2023-11-21T09:50:10;8.90;;;8.10;;
13816;SDS011;6979;52.116;5.286;2023-11-21T09:52:39;8.77;;;8.03;;
13816;SDS011;6979;52.116;5.286;2023-11-21T09:55:14;9.60;;;8.63;;
13816;SDS011;6979;52.116;5.286;2023-11-21T09:57:44;8.77;;;7.97;;
13816;SDS011;6979;52.116;5.286;2023-11-21T10:00:13;9.23;;;8.33;;
13816;SDS011;6979;52.116;5.286;2023-11-21T10:02:45;9.00;;;7.23;;
13816;SDS011;6979;52.116;5.286;2023-11-21T10:05:16;9.67;;;8.00;;
13816;SDS011;6979;52.116;5.286;2023-11-21T10:07:47;8.60;;;7.70;;
13816;SDS011;6979;52.116;5.286;2023-11-21T10:10:16;9.43;;;8.53;;
13816;SDS011;6979;52.116;5.286;2023-11-21T10:12:45;7.60;;;6.80;;
13816;SDS011;6979;52.116;5.286;2023-11-21T10:15:18;7.77;;;6.93;;
13816;SDS011;6979;52.116;5.286;2023-11-21T10:17:48;7.17;;;6.47;;
13816;SDS011;6979;52.116;5.286;2023-11-21T10:20:19;8.27;;;7.40;;
13816;SDS011;6979;52.116;5.286;2023-11-21T10:22:47;6.93;;;6.30;;
13816;SDS011;6979;52.116;5.286;2023-11-21T10:25:14;7.13;;;6.53;;
13816;SDS011;6979;52.116;5.286;2023-11-21T10:27:41;7.10;;;6.37;;
13816;SDS011;6979;52.116;5.286;2023-11-21T10:30:09;6.60;;;5.97;;
13816;SDS011;6979;52.116;5.286;2023-11-21T10:32:37;6.13;;;5.53;;
13816;SDS011;6979;52.116;5.286;2023-11-21T10:35:06;6.47;;;5.83;;
13816;SDS011;6979;52.116;5.286;2023-11-21T10:37:36;6.20;;;5.60;;
13816;SDS011;6979;52.116;5.286;2023-11-21T10:40:05;6.50;;;5.70;;
13816;SDS011;6979;52.116;5.286;2023-11-21T10:42:33;5.73;;;5.10;;
13816;SDS011;6979;52.116;5.286;2023-11-21T10:45:00;6.53;;;5.93;;
13816;SDS011;6979;52.116;5.286;2023-11-21T10:47:28;6.20;;;5.60;;
13816;SDS011;6979;52.116;5.286;2023-11-21T10:49:57;6.57;;;5.97;;
13816;SDS011;6979;52.116;5.286;2023-11-21T10:52:26;6.27;;;5.70;;
13816;SDS011;6979;52.116;5.286;2023-11-21T10:54:55;7.23;;;6.40;;
13816;SDS011;6979;52.116;5.286;2023-11-21T10:57:24;6.80;;;6.10;;
13816;SDS011;6979;52.116;5.286;2023-11-21T10:59:51;8.40;;;7.60;;
13816;SDS011;6979;52.116;5.286;2023-11-21T11:02:23;9.47;;;8.00;;
13816;SDS011;6979;52.116;5.286;2023-11-21T11:04:53;9.57;;;8.67;;
13816;SDS011;6979;52.116;5.286;2023-11-21T11:07:21;8.90;;;8.07;;
13816;SDS011;6979;52.116;5.286;2023-11-21T11:09:52;9.23;;;8.27;;
13816;SDS011;6979;52.116;5.286;2023-11-21T11:12:21;9.77;;;8.77;;
13816;SDS011;6979;52.116;5.286;2023-11-21T11:14:47;9.63;;;8.50;;
13816;SDS011;6979;52.116;5.286;2023-11-21T11:17:14;10.40;;;9.30;;
13816;SDS011;6979;52.116;5.286;2023-11-21T11:19:44;10.57;;;9.57;;
13816;SDS011;6979;52.116;5.286;2023-11-21T11:22:14;10.20;;;9.13;;
13816;SDS011;6979;52.116;5.286;2023-11-21T11:24:58;10.97;;;9.87;;
13816;SDS011;6979;52.116;5.286;2023-11-21T11:27:47;10.97;;;9.87;;
13816;SDS011;6979;52.116;5.286;2023-11-21T11:30:23;11.50;;;9.67;;
13816;SDS011;6979;52.116;5.286;2023-11-21T11:33:07;12.13;;;10.53;;
13816;SDS011;6979;52.116;5.286;2023-11-21T11:35:44;12.90;;;11.47;;
13816;SDS011;6979;52.116;5.286;2023-11-21T11:38:20;11.43;;;10.23;;
13816;SDS011;6979;52.116;5.286;2023-11-21T11:40:48;11.67;;;10.27;;
13816;SDS011;6979;52.116;5.286;2023-11-21T11:43:26;12.03;;;10.83;;
13816;SDS011;6979;52.116;5.286;2023-11-21T11:46:02;12.30;;;10.83;;
13816;SDS011;6979;52.116;5.286;2023-11-21T11:48:29;12.40;;;10.87;;
13816;SDS011;6979;52.116;5.286;2023-11-21T11:51:01;13.40;;;11.87;;
13816;SDS011;6979;52.116;5.286;2023-11-21T11:53:33;11.57;;;10.30;;
13816;SDS011;6979;52.116;5.286;2023-11-21T11:56:19;11.97;;;10.77;;
13816;SDS011;6979;52.116;5.286;2023-11-21T11:58:52;10.67;;;9.63;;
13816;SDS011;6979;52.116;5.286;2023-11-21T12:01:21;10.20;;;8.90;;
13816;SDS011;6979;52.116;5.286;2023-11-21T12:06:56;10.70;;;9.53;;
13816;SDS011;6979;52.116;5.286;2023-11-21T12:09:27;10.13;;;9.13;;
13816;SDS011;6979;52.116;5.286;2023-11-21T12:11:56;10.80;;;9.70;;
13816;SDS011;6979;52.116;5.286;2023-11-21T12:14:24;11.57;;;10.37;;
13816;SDS011;6979;52.116;5.286;2023-11-21T12:16:51;12.07;;;10.93;;
13816;SDS011;6979;52.116;5.286;2023-11-21T12:19:19;12.97;;;11.70;;
13816;SDS011;6979;52.116;5.286;2023-11-21T12:21:47;12.17;;;10.70;;
13816;SDS011;6979;52.116;5.286;2023-11-21T12:24:15;12.17;;;10.87;;
13816;SDS011;6979;52.116;5.286;2023-11-21T12:26:43;12.90;;;11.30;;
13816;SDS011;6979;52.116;5.286;2023-11-21T12:29:10;11.43;;;10.23;;
13816;SDS011;6979;52.116;5.286;2023-11-21T12:31:38;11.57;;;10.30;;
13816;SDS011;6979;52.116;5.286;2023-11-21T12:34:06;13.50;;;12.10;;
13816;SDS011;6979;52.116;5.286;2023-11-21T12:36:36;13.43;;;12.07;;
13816;SDS011;6979;52.116;5.286;2023-11-21T12:39:03;13.53;;;12.13;;
13816;SDS011;6979;52.116;5.286;2023-11-21T12:41:31;14.60;;;13.10;;
13816;SDS011;6979;52.116;5.286;2023-11-21T12:43:57;15.03;;;13.00;;
13816;SDS011;6979;52.116;5.286;2023-11-21T12:46:24;12.90;;;11.60;;
13816;SDS011;6979;52.116;5.286;2023-11-21T12:48:55;13.67;;;12.13;;
13816;SDS011;6979;52.116;5.286;2023-11-21T12:51:23;13.00;;;11.70;;
13816;SDS011;6979;52.116;5.286;2023-11-21T12:53:51;13.40;;;12.00;;
13816;SDS011;6979;52.116;5.286;2023-11-21T12:56:19;13.40;;;12.10;;
13816;SDS011;6979;52.116;5.286;2023-11-21T12:58:49;11.83;;;10.63;;
13816;SDS011;6979;52.116;5.286;2023-11-21T13:01:17;11.57;;;10.30;;
13816;SDS011;6979;52.116;5.286;2023-11-21T13:03:47;9.77;;;8.87;;
13816;SDS011;6979;52.116;5.286;2023-11-21T13:06:18;9.97;;;9.00;;
13816;SDS011;6979;52.116;5.286;2023-11-21T13:08:49;10.43;;;9.43;;
13816;SDS011;6979;52.116;5.286;2023-11-21T13:11:16;10.13;;;8.50;;
13816;SDS011;6979;52.116;5.286;2023-11-21T13:13:43;8.60;;;7.80;;
13816;SDS011;6979;52.116;5.286;2023-11-21T13:16:11;8.37;;;7.57;;
13816;SDS011;6979;52.116;5.286;2023-11-21T13:18:38;7.77;;;7.07;;
13816;SDS011;6979;52.116;5.286;2023-11-21T13:21:07;8.10;;;7.40;;
13816;SDS011;6979;52.116;5.286;2023-11-21T13:23:40;7.93;;;7.13;;
13816;SDS011;6979;52.116;5.286;2023-11-21T13:26:08;8.77;;;7.50;;
13816;SDS011;6979;52.116;5.286;2023-11-21T13:28:36;7.53;;;6.83;;
13816;SDS011;6979;52.116;5.286;2023-11-21T13:31:05;6.67;;;5.97;;
13816;SDS011;6979;52.116;5.286;2023-11-21T13:33:45;5.77;;;5.27;;
13816;SDS011;6979;52.116;5.286;2023-11-21T13:36:16;5.97;;;5.20;;
13816;SDS011;6979;52.116;5.286;2023-11-21T13:38:49;5.70;;;4.50;;
13816;SDS011;6979;52.116;5.286;2023-11-21T13:41:17;5.00;;;4.50;;
13816;SDS011;6979;52.116;5.286;2023-11-21T13:43:44;4.63;;;4.20;;
13816;SDS011;6979;52.116;5.286;2023-11-21T13:46:17;4.40;;;4.00;;
13816;SDS011;6979;52.116;5.286;2023-11-21T13:48:47;6.47;;;5.37;;
13816;SDS011;6979;52.116;5.286;2023-11-21T13:51:21;6.47;;;5.37;;
13816;SDS011;6979;52.116;5.286;2023-11-21T13:53:57;6.70;;;5.03;;
13816;SDS011;6979;52.116;5.286;2023-11-21T13:56:25;5.90;;;5.40;;
13816;SDS011;6979;52.116;5.286;2023-11-21T13:58:54;6.33;;;4.87;;
13816;SDS011;6979;52.116;5.286;2023-11-21T14:01:21;4.80;;;4.40;;
13816;SDS011;6979;52.116;5.286;2023-11-21T14:04:10;4.63;;;4.23;;
13816;SDS011;6979;52.116;5.286;2023-11-21T14:06:45;5.57;;;4.93;;
13816;SDS011;6979;52.116;5.286;2023-11-21T14:09:15;6.60;;;5.87;;
13816;SDS011;6979;52.116;5.286;2023-11-21T14:11:51;7.50;;;5.97;;
13816;SDS011;6979;52.116;5.286;2023-11-21T14:14:18;7.67;;;6.97;;
13816;SDS011;6979;52.116;5.286;2023-11-21T14:16:46;7.77;;;7.00;;
13816;SDS011;6979;52.116;5.286;2023-11-21T14:19:12;9.17;;;8.30;;
13816;SDS011;6979;52.116;5.286;2023-11-21T14:21:42;9.40;;;8.43;;
13816;SDS011;6979;52.116;5.286;2023-11-21T14:24:09;10.27;;;9.27;;
13816;SDS011;6979;52.116;5.286;2023-11-21T14:26:40;10.80;;;9.77;;
13816;SDS011;6979;52.116;5.286;2023-11-21T14:29:08;11.93;;;10.77;;
13816;SDS011;6979;52.116;5.286;2023-11-21T14:31:37;11.50;;;10.30;;
13816;SDS011;6979;52.116;5.286;2023-11-21T14:34:04;11.87;;;10.60;;
13816;SDS011;6979;52.116;5.286;2023-11-21T14:36:32;13.23;;;11.93;;
13816;SDS011;6979;52.116;5.286;2023-11-21T14:38:59;12.17;;;11.07;;
13816;SDS011;6979;52.116;5.286;2023-11-21T14:41:26;12.73;;;11.53;;
13816;SDS011;6979;52.116;5.286;2023-11-21T14:43:55;14.30;;;12.80;;
13816;SDS011;6979;52.116;5.286;2023-11-21T14:46:22;12.53;;;11.30;;
13816;SDS011;6979;52.116;5.286;2023-11-21T14:48:50;12.20;;;11.00;;
13816;SDS011;6979;52.116;5.286;2023-11-21T14:51:24;12.83;;;11.53;;
13816;SDS011;6979;52.116;5.286;2023-11-21T14:53:55;13.53;;;12.23;;
13816;SDS011;6979;52.116;5.286;2023-11-21T14:56:26;13.07;;;11.77;;
13816;SDS011;6979;52.116;5.286;2023-11-21T14:58:57;13.83;;;12.50;;